createdAt,value
2022-07-28T00:00:44.633Z,99.90
2022-07-28T00:03:11.459Z,99.90
2022-07-28T00:05:38.493Z,99.90
2022-07-28T00:08:05.494Z,99.90
2022-07-28T00:10:32.477Z,99.90
2022-07-28T00:13:00.037Z,99.90
2022-07-28T00:15:27.521Z,99.90
2022-07-28T00:17:54.314Z,99.90
2022-07-28T00:20:21.430Z,99.90
2022-07-28T00:22:48.174Z,99.90
2022-07-28T00:25:15.342Z,99.90
2022-07-28T00:27:42.094Z,99.90
2022-07-28T00:30:10.067Z,99.90
2022-07-28T00:32:37.781Z,99.90
2022-07-28T00:35:05.110Z,99.90
2022-07-28T00:37:34.950Z,99.90
2022-07-28T00:40:01.899Z,99.90
2022-07-28T00:42:28.663Z,99.90
2022-07-28T00:44:55.380Z,99.90
2022-07-28T00:47:22.476Z,99.90
2022-07-28T00:49:50.388Z,99.90
2022-07-28T00:52:18.356Z,99.90
2022-07-28T00:54:45.282Z,99.90
2022-07-28T00:57:12.010Z,99.90
2022-07-28T00:59:38.762Z,99.90
2022-07-28T01:02:05.772Z,99.90
2022-07-28T01:04:32.611Z,99.90
2022-07-28T01:06:59.288Z,99.90
2022-07-28T01:09:31.956Z,99.90
2022-07-28T01:12:07.926Z,99.90
2022-07-28T01:14:38.300Z,99.90
2022-07-28T01:17:10.974Z,99.90
2022-07-28T01:19:49.055Z,99.90
2022-07-28T01:22:17.513Z,99.90
2022-07-28T01:24:49.683Z,99.90
2022-07-28T01:27:39.759Z,99.90
2022-07-28T01:30:06.747Z,99.90
2022-07-28T01:32:39.227Z,99.90
2022-07-28T01:35:06.019Z,99.90
2022-07-28T01:37:34.224Z,99.90
2022-07-28T01:40:03.191Z,99.90
2022-07-28T01:42:33.437Z,99.90
2022-07-28T01:45:00.905Z,99.90
2022-07-28T01:47:31.720Z,99.90
2022-07-28T01:50:00.837Z,99.90
2022-07-28T01:52:29.075Z,99.90
2022-07-28T01:54:56.785Z,99.90
2022-07-28T01:57:25.268Z,99.90
2022-07-28T01:59:53.191Z,99.90
2022-07-28T02:02:20.612Z,99.90
2022-07-28T02:04:48.704Z,99.90
2022-07-28T02:07:17.207Z,99.90
2022-07-28T02:09:45.593Z,99.90
2022-07-28T02:12:13.681Z,99.90
2022-07-28T02:14:41.449Z,99.90
2022-07-28T02:17:10.798Z,99.90
2022-07-28T02:19:37.972Z,99.90
2022-07-28T02:22:05.213Z,99.90
2022-07-28T02:24:32.328Z,99.90
2022-07-28T02:27:00.982Z,99.90
2022-07-28T02:29:49.684Z,99.90
2022-07-28T02:32:27.084Z,99.90
2022-07-28T02:35:05.310Z,99.90
2022-07-28T02:37:38.546Z,99.90
2022-07-28T02:40:08.723Z,99.90
2022-07-28T02:42:36.238Z,99.90
2022-07-28T02:45:04.606Z,99.90
2022-07-28T02:47:33.303Z,99.90
2022-07-28T02:50:01.051Z,99.90
2022-07-28T02:52:28.311Z,99.90
2022-07-28T02:54:56.677Z,99.90
2022-07-28T02:57:24.239Z,99.90
2022-07-28T02:59:51.517Z,99.90
2022-07-28T03:02:21.766Z,99.90
2022-07-28T03:05:02.181Z,99.90
2022-07-28T03:07:29.643Z,99.90
2022-07-28T03:09:56.414Z,99.90
2022-07-28T03:12:23.175Z,99.90
2022-07-28T03:14:49.901Z,99.90
2022-07-28T03:17:17.003Z,99.90
2022-07-28T03:19:43.772Z,99.90
2022-07-28T03:22:10.716Z,99.90
2022-07-28T03:24:38.709Z,99.90
2022-07-28T03:27:22.851Z,99.90
2022-07-28T03:29:52.031Z,99.90
2022-07-28T03:32:19.618Z,99.90
2022-07-28T03:34:46.767Z,99.90
2022-07-28T03:37:16.526Z,99.90
2022-07-28T03:39:46.944Z,99.90
2022-07-28T03:42:20.546Z,99.90
2022-07-28T03:44:47.740Z,99.90
2022-07-28T03:47:15.162Z,99.90
2022-07-28T03:49:45.521Z,99.90
2022-07-28T03:52:12.264Z,99.90
2022-07-28T03:54:39.014Z,99.90
2022-07-28T03:57:05.754Z,99.90
2022-07-28T03:59:32.447Z,99.90
2022-07-28T04:01:59.230Z,99.90
2022-07-28T04:04:26.160Z,99.90
2022-07-28T04:06:52.882Z,99.90
2022-07-28T04:09:19.629Z,99.90
2022-07-28T04:11:46.474Z,99.90
2022-07-28T04:14:16.656Z,99.90
2022-07-28T04:16:44.403Z,99.90
2022-07-28T04:19:11.580Z,99.90
2022-07-28T04:21:38.327Z,99.90
2022-07-28T04:24:05.265Z,99.90
2022-07-28T04:26:32.010Z,99.90
2022-07-28T04:28:58.753Z,99.90
2022-07-28T04:31:30.529Z,99.90
2022-07-28T04:33:57.319Z,99.90
2022-07-28T04:36:24.135Z,99.90
2022-07-28T04:38:51.230Z,99.90
2022-07-28T04:41:18.088Z,99.90
2022-07-28T04:43:45.676Z,99.90
2022-07-28T04:48:40.778Z,99.90
2022-07-28T04:51:07.845Z,99.90
2022-07-28T04:58:56.077Z,99.90
2022-07-28T05:01:24.009Z,99.90
2022-07-28T05:03:51.133Z,99.90
2022-07-28T05:06:18.872Z,99.90
2022-07-28T05:08:50.221Z,99.90
2022-07-28T05:11:17.420Z,99.90
2022-07-28T05:13:44.699Z,99.90
2022-07-28T05:16:11.983Z,99.90
2022-07-28T05:18:41.573Z,99.90
2022-07-28T05:21:08.543Z,99.90
2022-07-28T05:23:35.450Z,99.90
2022-07-28T05:26:02.407Z,99.90
2022-07-28T05:28:29.391Z,99.90
2022-07-28T05:30:56.400Z,99.90
2022-07-28T05:33:23.353Z,99.90
2022-07-28T05:35:57.858Z,99.90
2022-07-28T05:38:27.377Z,99.90
2022-07-28T05:40:54.342Z,99.90
2022-07-28T05:43:21.212Z,99.90
2022-07-28T05:45:48.743Z,99.90
2022-07-28T05:48:19.112Z,99.90
2022-07-28T05:50:46.462Z,99.90
2022-07-28T05:53:13.227Z,99.90
2022-07-28T05:56:00.760Z,99.90
2022-07-28T05:58:28.875Z,99.90
2022-07-28T06:00:58.424Z,99.90
2022-07-28T06:03:25.238Z,99.90
2022-07-28T06:06:09.329Z,99.90
2022-07-28T06:08:41.069Z,99.90
2022-07-28T06:11:17.933Z,99.90
2022-07-28T06:13:49.584Z,99.90
2022-07-28T06:16:16.500Z,99.90
2022-07-28T06:18:44.275Z,99.90
2022-07-28T06:21:11.235Z,99.90
2022-07-28T06:23:38.279Z,99.90
2022-07-28T06:26:05.155Z,99.90
2022-07-28T06:28:32.998Z,99.90
2022-07-28T06:30:59.721Z,99.90
2022-07-28T06:33:26.417Z,99.90
2022-07-28T06:35:53.152Z,99.90
2022-07-28T06:38:25.580Z,99.90
2022-07-28T06:40:52.378Z,99.90
2022-07-28T06:43:19.143Z,99.90
2022-07-28T06:45:45.893Z,99.90
2022-07-28T06:48:13.870Z,99.90
2022-07-28T06:50:41.528Z,99.90
2022-07-28T06:53:08.265Z,99.90
2022-07-28T06:55:35.860Z,99.90
2022-07-28T06:58:06.157Z,99.90
2022-07-28T07:00:33.055Z,99.90
2022-07-28T07:03:00.967Z,99.90
2022-07-28T07:05:32.269Z,99.90
2022-07-28T07:07:59.385Z,99.90
2022-07-28T07:10:26.316Z,99.90
2022-07-28T07:12:53.157Z,99.90
2022-07-28T07:15:19.914Z,99.90
2022-07-28T07:17:46.720Z,99.90
2022-07-28T07:20:14.336Z,99.90
2022-07-28T07:22:47.293Z,99.90
2022-07-28T07:25:15.896Z,99.90
2022-07-28T07:27:42.947Z,99.90
2022-07-28T07:30:10.562Z,99.90
2022-07-28T07:32:37.555Z,99.90
2022-07-28T07:35:05.041Z,99.90
2022-07-28T07:37:32.677Z,99.90
2022-07-28T07:40:00.275Z,99.90
2022-07-28T07:42:27.066Z,99.90
2022-07-28T07:44:53.817Z,99.90
2022-07-28T07:47:20.510Z,99.90
2022-07-28T07:49:47.301Z,99.90
2022-07-28T07:52:14.369Z,99.90
2022-07-28T07:54:41.643Z,99.90
2022-07-28T07:57:08.391Z,99.90
2022-07-28T07:59:35.365Z,99.90
2022-07-28T08:02:02.317Z,99.90
2022-07-28T08:04:29.383Z,99.90
2022-07-28T08:06:56.430Z,99.90
2022-07-28T08:09:23.419Z,99.90
2022-07-28T08:11:50.163Z,99.90
2022-07-28T08:14:17.816Z,99.90
2022-07-28T08:16:45.059Z,99.90
2022-07-28T08:19:11.852Z,99.90
2022-07-28T08:21:38.802Z,99.90
2022-07-28T08:24:05.753Z,99.90
2022-07-28T08:26:32.542Z,99.90
2022-07-28T08:28:59.307Z,99.90
2022-07-28T08:31:26.281Z,99.90
2022-07-28T08:33:54.594Z,99.90
2022-07-28T08:36:21.905Z,99.90
2022-07-28T08:38:48.625Z,99.90
2022-07-28T08:41:34.208Z,99.90
2022-07-28T08:44:02.429Z,99.90
2022-07-28T08:46:32.990Z,99.90
2022-07-28T08:49:00.017Z,99.90
2022-07-28T08:51:27.450Z,97.50
2022-07-28T08:53:54.794Z,97.60
2022-07-28T08:56:21.615Z,96.20
2022-07-28T08:58:48.360Z,93.60
2022-07-28T09:01:15.775Z,95.20
2022-07-28T09:03:42.761Z,94.80
2022-07-28T09:06:09.573Z,94.00
2022-07-28T09:08:36.678Z,93.60
2022-07-28T09:11:03.500Z,94.30
2022-07-28T09:13:30.352Z,94.40
2022-07-28T09:15:57.519Z,93.50
2022-07-28T09:18:24.374Z,93.40
2022-07-28T09:20:51.119Z,94.00
2022-07-28T09:23:43.083Z,93.50
2022-07-28T09:26:12.633Z,92.90
2022-07-28T09:28:51.868Z,92.80
2022-07-28T09:31:18.908Z,93.50
2022-07-28T09:33:57.851Z,92.20
2022-07-28T09:36:24.792Z,93.00
2022-07-28T09:38:51.747Z,92.50
2022-07-28T09:41:21.789Z,93.00
2022-07-28T09:43:54.495Z,91.30
2022-07-28T09:46:23.273Z,90.30
2022-07-28T09:48:52.006Z,90.20
2022-07-28T09:51:23.440Z,92.00
2022-07-28T09:53:50.428Z,88.80
2022-07-28T09:56:17.454Z,85.20
2022-07-28T09:58:54.627Z,85.60
2022-07-28T10:01:22.221Z,83.10
2022-07-28T10:03:56.105Z,87.00
2022-07-28T10:06:29.946Z,86.90
2022-07-28T10:09:04.029Z,86.50
2022-07-28T10:11:31.096Z,86.30
2022-07-28T10:13:57.856Z,86.00
2022-07-28T10:16:28.856Z,87.30
2022-07-28T10:18:56.626Z,88.50
2022-07-28T10:21:24.291Z,86.50
2022-07-28T10:23:52.550Z,86.00
2022-07-28T10:26:20.785Z,85.60
2022-07-28T10:28:49.177Z,86.50
2022-07-28T10:31:20.376Z,78.80
2022-07-28T10:33:48.731Z,82.20
2022-07-28T10:36:16.852Z,83.90
2022-07-28T10:38:43.828Z,82.00
2022-07-28T10:41:11.648Z,80.30
2022-07-28T10:43:42.908Z,85.30
2022-07-28T10:46:16.009Z,80.40
2022-07-28T10:48:43.804Z,80.80
2022-07-28T10:51:10.845Z,81.20
2022-07-28T10:53:54.533Z,79.50
2022-07-28T10:56:27.506Z,80.90
2022-07-28T10:59:04.716Z,79.80
2022-07-28T11:01:51.609Z,80.60
2022-07-28T11:04:37.003Z,79.70
2022-07-28T11:07:13.770Z,77.70
2022-07-28T11:09:40.632Z,75.40
2022-07-28T11:12:09.742Z,75.90
2022-07-28T11:14:38.278Z,75.00
2022-07-28T11:17:10.333Z,73.90
2022-07-28T11:20:00.820Z,73.80
2022-07-28T11:22:33.209Z,74.70
2022-07-28T11:25:19.849Z,75.00
2022-07-28T11:27:49.833Z,72.10
2022-07-28T11:30:21.292Z,76.60
2022-07-28T11:32:51.355Z,71.80
2022-07-28T11:35:19.170Z,71.50
2022-07-28T11:38:01.332Z,77.90
2022-07-28T11:40:31.536Z,73.70
2022-07-28T11:43:16.869Z,72.60
2022-07-28T11:45:54.088Z,72.90
2022-07-28T11:48:23.244Z,75.80
2022-07-28T11:51:05.315Z,72.00
2022-07-28T11:53:35.623Z,69.30
2022-07-28T11:56:09.814Z,72.00
2022-07-28T11:58:37.295Z,73.80
2022-07-28T12:01:19.076Z,67.70
2022-07-28T12:03:56.270Z,68.30
2022-07-28T12:06:27.349Z,67.80
2022-07-28T12:08:59.618Z,68.30
2022-07-28T12:11:27.724Z,68.90
2022-07-28T12:14:01.399Z,66.10
2022-07-28T12:16:28.947Z,69.10
2022-07-28T12:18:56.000Z,65.50
2022-07-28T12:21:35.757Z,66.80
2022-07-28T12:24:02.486Z,67.20
2022-07-28T12:26:31.425Z,67.40
2022-07-28T12:28:59.080Z,70.10
2022-07-28T12:31:29.896Z,68.10
2022-07-28T12:33:56.929Z,65.80
2022-07-28T12:36:26.592Z,65.10
2022-07-28T12:38:53.599Z,65.40
2022-07-28T12:41:20.637Z,65.80
2022-07-28T12:43:51.272Z,64.30
2022-07-28T12:46:28.476Z,62.40
2022-07-28T12:48:56.460Z,64.60
2022-07-28T12:51:29.930Z,64.20
2022-07-28T12:53:56.660Z,67.00
2022-07-28T12:56:23.417Z,66.50
2022-07-28T12:58:56.508Z,68.10
2022-07-28T13:01:23.327Z,64.60
2022-07-28T13:03:53.958Z,64.90
2022-07-28T13:06:20.940Z,62.60
2022-07-28T13:08:47.740Z,64.00
2022-07-28T13:11:42.048Z,64.90
2022-07-28T13:14:03.658Z,61.70
2022-07-28T13:16:30.488Z,66.20
2022-07-28T13:18:58.469Z,65.70
2022-07-28T13:21:57.614Z,63.70
2022-07-28T13:24:26.001Z,62.00
2022-07-28T13:26:52.723Z,62.00
2022-07-28T13:29:19.802Z,63.90
2022-07-28T13:31:46.762Z,61.80
2022-07-28T13:34:14.023Z,64.00
2022-07-28T13:36:41.193Z,64.20
2022-07-28T13:39:10.774Z,62.20
2022-07-28T13:41:42.058Z,63.30
2022-07-28T13:44:24.290Z,61.60
2022-07-28T13:46:51.692Z,65.20
2022-07-28T13:49:21.468Z,63.50
2022-07-28T13:51:48.796Z,60.60
2022-07-28T13:54:19.025Z,62.90
2022-07-28T13:56:46.569Z,61.50
2022-07-28T13:59:13.842Z,61.80
2022-07-28T14:01:41.424Z,63.90
2022-07-28T14:04:14.610Z,63.50
2022-07-28T14:06:45.115Z,63.40
2022-07-28T14:09:12.340Z,62.40
2022-07-28T14:11:49.317Z,63.90
2022-07-28T14:14:20.153Z,62.60
2022-07-28T14:16:48.055Z,61.00
2022-07-28T14:19:16.628Z,61.40
2022-07-28T14:21:50.460Z,63.30
2022-07-28T14:24:17.791Z,62.50
2022-07-28T14:26:44.688Z,62.00
2022-07-28T14:29:11.846Z,60.80
2022-07-28T14:31:38.727Z,64.40
2022-07-28T14:34:08.635Z,61.70
2022-07-28T14:36:35.484Z,61.20
2022-07-28T14:39:02.242Z,60.40
2022-07-28T14:41:28.944Z,61.70
2022-07-28T14:43:56.431Z,61.50
2022-07-28T14:46:29.691Z,61.80
2022-07-28T14:48:57.112Z,63.40
2022-07-28T14:51:23.863Z,59.90
2022-07-28T14:53:52.153Z,61.80
2022-07-28T14:56:19.054Z,60.00
2022-07-28T14:58:45.742Z,61.90
2022-07-28T15:01:12.491Z,63.30
2022-07-28T15:03:43.327Z,62.20
2022-07-28T15:06:10.613Z,62.30
2022-07-28T15:08:37.414Z,61.10
2022-07-28T15:11:04.371Z,61.80
2022-07-28T15:13:31.136Z,63.50
2022-07-28T15:16:00.044Z,60.30
2022-07-28T15:18:26.970Z,59.80
2022-07-28T15:20:56.183Z,60.90
2022-07-28T15:23:24.372Z,61.20
2022-07-28T15:25:51.555Z,61.10
2022-07-28T15:28:19.258Z,63.70
2022-07-28T15:30:51.738Z,61.40
2022-07-28T15:33:20.499Z,59.70
2022-07-28T15:35:59.344Z,60.00
2022-07-28T15:38:27.331Z,62.30
2022-07-28T15:40:54.157Z,61.20
2022-07-28T15:43:23.894Z,61.50
2022-07-28T15:45:50.938Z,61.30
2022-07-28T15:48:17.772Z,61.90
2022-07-28T15:50:48.772Z,63.60
2022-07-28T15:53:18.658Z,61.10
2022-07-28T15:55:50.852Z,63.00
2022-07-28T15:58:18.622Z,61.90
2022-07-28T16:00:46.065Z,63.60
2022-07-28T16:03:13.248Z,64.50
2022-07-28T16:05:40.223Z,63.90
2022-07-28T16:08:07.016Z,63.00
2022-07-28T16:10:33.906Z,62.20
2022-07-28T16:13:01.674Z,61.60
2022-07-28T16:15:28.573Z,62.30
2022-07-28T16:17:55.532Z,62.60
2022-07-28T16:20:22.253Z,61.50
2022-07-28T16:22:49.077Z,61.10
2022-07-28T16:25:20.396Z,61.70
2022-07-28T16:27:47.619Z,63.40
2022-07-28T16:30:15.231Z,62.20
2022-07-28T16:32:41.998Z,62.00
2022-07-28T16:35:08.992Z,61.90
2022-07-28T16:37:35.956Z,63.60
2022-07-28T16:40:06.163Z,64.80
2022-07-28T16:42:32.883Z,64.00
2022-07-28T16:44:59.590Z,63.70
2022-07-28T16:47:26.308Z,66.60
2022-07-28T16:49:53.061Z,63.00
2022-07-28T16:52:19.821Z,62.90
2022-07-28T16:54:47.405Z,64.10
2022-07-28T16:57:14.868Z,67.40
2022-07-28T16:59:47.760Z,67.20
2022-07-28T17:02:15.349Z,70.60
2022-07-28T17:04:42.178Z,67.00
2022-07-28T17:07:09.122Z,67.60
2022-07-28T17:09:35.854Z,67.20
2022-07-28T17:12:02.626Z,68.80
2022-07-28T17:14:29.333Z,69.40
2022-07-28T17:16:56.070Z,74.20
2022-07-28T17:19:22.788Z,68.30
2022-07-28T17:21:49.590Z,70.80
2022-07-28T17:24:16.750Z,74.10
2022-07-28T17:29:30.510Z,73.00
2022-07-28T17:31:57.233Z,75.90
2022-07-28T17:34:24.064Z,74.70
2022-07-28T17:36:50.869Z,74.70
2022-07-28T17:39:17.571Z,76.00
2022-07-28T17:41:44.287Z,78.20
2022-07-28T17:44:10.976Z,78.60
2022-07-28T17:46:37.949Z,81.30
2022-07-28T17:49:06.367Z,82.00
2022-07-28T17:51:33.216Z,82.20
2022-07-28T17:54:00.003Z,83.50
2022-07-28T17:56:27.515Z,85.80
2022-07-28T17:58:55.468Z,85.70
2022-07-28T18:01:22.226Z,86.00
2022-07-28T18:03:58.557Z,85.90
2022-07-28T18:06:28.373Z,86.90
2022-07-28T18:08:55.086Z,87.30
2022-07-28T18:11:21.799Z,88.80
2022-07-28T18:14:04.534Z,90.10
2022-07-28T18:16:35.322Z,90.40
2022-07-28T18:19:02.397Z,90.80
2022-07-28T18:21:29.248Z,91.10
2022-07-28T18:23:55.997Z,91.60
2022-07-28T18:26:22.731Z,91.60
2022-07-28T18:28:49.547Z,92.00
2022-07-28T18:31:16.345Z,92.20
2022-07-28T18:33:43.138Z,92.70
2022-07-28T18:36:10.248Z,92.60
2022-07-28T18:38:36.990Z,92.50
2022-07-28T18:41:03.706Z,93.00
2022-07-28T18:43:31.396Z,93.00
2022-07-28T18:45:58.146Z,93.40
2022-07-28T18:48:25.646Z,94.00
2022-07-28T18:50:52.573Z,94.10
2022-07-28T18:53:19.310Z,94.60
2022-07-28T18:55:46.109Z,94.90
2022-07-28T18:58:12.858Z,95.20
2022-07-28T19:00:39.606Z,95.00
2022-07-28T19:03:06.395Z,95.50
2022-07-28T19:05:37.136Z,95.50
2022-07-28T19:08:04.767Z,95.90
2022-07-28T19:10:32.434Z,96.60
2022-07-28T19:12:59.704Z,96.50
2022-07-28T19:15:26.558Z,96.20
2022-07-28T19:18:10.467Z,96.40
2022-07-28T19:20:44.047Z,96.60
2022-07-28T19:23:10.771Z,97.30
2022-07-28T19:25:38.785Z,97.80
2022-07-28T19:28:05.910Z,98.30
2022-07-28T19:30:33.043Z,98.10
2022-07-28T19:33:00.226Z,97.90
2022-07-28T19:35:27.217Z,99.00
2022-07-28T19:37:55.425Z,99.70
2022-07-28T19:40:22.276Z,99.90
2022-07-28T19:42:49.008Z,99.70
2022-07-28T19:45:15.792Z,99.30
2022-07-28T19:47:42.792Z,99.10
2022-07-28T19:50:09.639Z,99.30
2022-07-28T19:52:37.389Z,99.90
2022-07-28T19:55:05.254Z,99.90
2022-07-28T19:57:33.065Z,99.90
2022-07-28T20:00:01.930Z,99.90
2022-07-28T20:02:28.892Z,99.90
2022-07-28T20:04:55.971Z,99.90
2022-07-28T20:07:23.937Z,99.90
2022-07-28T20:09:50.833Z,99.90
2022-07-28T20:12:17.819Z,99.90
2022-07-28T20:14:44.516Z,99.90
2022-07-28T20:17:20.101Z,99.90
2022-07-28T20:19:57.953Z,99.90
2022-07-28T20:22:25.172Z,99.90
2022-07-28T20:24:51.904Z,99.90
2022-07-28T20:27:18.637Z,99.90
2022-07-28T20:29:45.338Z,99.90
2022-07-28T20:32:12.039Z,99.90
2022-07-28T20:34:38.840Z,99.90
2022-07-28T20:37:06.196Z,99.90
2022-07-28T20:39:44.994Z,99.90
2022-07-28T20:42:12.283Z,99.90
2022-07-28T20:44:39.025Z,99.90
2022-07-28T20:47:05.799Z,99.90
2022-07-28T20:49:32.569Z,99.90
2022-07-28T20:51:59.292Z,99.90
2022-07-28T20:54:26.128Z,99.90
2022-07-28T20:56:52.889Z,99.90
2022-07-28T20:59:19.622Z,99.90
2022-07-28T21:01:46.452Z,99.90
2022-07-28T21:04:13.701Z,99.90
2022-07-28T21:06:50.889Z,99.90
2022-07-28T21:09:18.362Z,99.90
2022-07-28T21:11:45.051Z,99.90
2022-07-28T21:14:11.905Z,99.90
2022-07-28T21:16:38.800Z,99.90
2022-07-28T21:19:05.869Z,99.90
2022-07-28T21:21:32.648Z,99.90
2022-07-28T21:23:59.339Z,99.90
2022-07-28T21:26:26.031Z,99.90
2022-07-28T21:29:11.200Z,99.90
2022-07-28T21:32:03.784Z,99.90
2022-07-28T21:34:26.862Z,99.90
2022-07-28T21:36:53.631Z,99.90
2022-07-28T21:39:20.367Z,99.90
2022-07-28T21:41:47.098Z,99.90
2022-07-28T21:44:13.990Z,99.90
2022-07-28T21:46:44.065Z,99.90
2022-07-28T21:49:10.994Z,99.90
2022-07-28T21:51:37.887Z,99.90
2022-07-28T21:54:04.771Z,99.90
2022-07-28T21:56:34.316Z,99.90
2022-07-28T21:59:01.613Z,99.90
2022-07-28T22:01:28.569Z,99.90
2022-07-28T22:03:55.451Z,99.90
2022-07-28T22:06:22.396Z,99.90
2022-07-28T22:08:54.034Z,99.90
2022-07-28T22:11:21.802Z,99.90
2022-07-28T22:13:48.635Z,99.90
2022-07-28T22:16:15.559Z,99.90
2022-07-28T22:18:42.331Z,99.90
2022-07-28T22:21:09.043Z,99.90
2022-07-28T22:23:35.741Z,99.90
2022-07-28T22:26:02.581Z,99.90
2022-07-28T22:28:30.583Z,99.90
2022-07-28T22:30:58.358Z,99.90
2022-07-28T22:33:25.059Z,99.90
2022-07-28T22:35:52.160Z,99.90
2022-07-28T22:38:18.873Z,99.90
2022-07-28T22:40:45.636Z,99.90
2022-07-28T22:43:12.447Z,99.90
2022-07-28T22:45:49.701Z,99.90
2022-07-28T22:48:18.765Z,99.90
2022-07-28T22:50:45.634Z,99.90
2022-07-28T22:53:12.340Z,99.90
2022-07-28T22:55:39.676Z,99.90
2022-07-28T22:58:06.404Z,99.90
2022-07-28T23:00:36.172Z,99.90
2022-07-28T23:03:03.962Z,99.90
2022-07-28T23:05:30.850Z,99.90
2022-07-28T23:07:58.862Z,99.90
2022-07-28T23:10:26.030Z,99.90
2022-07-28T23:12:54.225Z,99.90
2022-07-28T23:15:22.823Z,99.90
2022-07-28T23:17:50.489Z,99.90
2022-07-28T23:20:17.192Z,99.90
2022-07-28T23:22:43.878Z,99.90
2022-07-28T23:25:12.926Z,99.90
2022-07-28T23:27:39.679Z,99.90
2022-07-28T23:30:06.762Z,99.90
2022-07-28T23:32:33.529Z,99.90
2022-07-28T23:35:00.300Z,99.90
2022-07-28T23:37:27.032Z,99.90
2022-07-28T23:39:54.458Z,99.90
2022-07-28T23:42:21.223Z,99.90
2022-07-28T23:44:47.965Z,99.90
2022-07-28T23:47:14.728Z,99.90
2022-07-28T23:49:41.525Z,99.90
2022-07-28T23:52:08.213Z,99.90
2022-07-28T23:54:34.904Z,99.90
2022-07-28T23:57:01.605Z,99.90
2022-07-28T23:59:28.420Z,99.90
